Pagina principale
METAR-TAF:

METAR-TAF

Aeroporti :

Aeroporto di Guidonia

Guidonia Montecelio, Italia

latitudine: 42-00N, longitudine: 012-44E, altezza: 88 m

Osservazione

Il bollettino è stato emesso 22 ore e 30 minuti fa, alle 17:55 UTC
Vento 9 kt da est
Temperature 23°C
Umidità 61%
Pressione 1012 hPa
Visibilità 10 km o più
Poco nuvoloso ad un'altezza di 2500 ft, Cumulonembo.
Nubi sparse ad un'altezza di 4000 ft

METAR: LIRG 121755Z 08009KT 9999 FEW025CB SCT040 23/15 Q1012

Ora: 18:25 (16:25 UTC)

Previsione

Il bollettino è stato emesso 26 ore e 25 minuti fa, alle 14:00 UTC
Previsione valida dal 12 alle 15 UTC al 12 alle 24 UTC
Vento 12 kt da sud-est
Visibilità 10 km o più
Poco nuvoloso ad un'altezza di 2000 ft
Nubi sparse ad un'altezza di 4000 ft
Temporaneamente
dal 12 alle 15 UTC al 12 alle 17 UTC
Poco nuvoloso ad un'altezza di 2500 ft, Cumulonembo.

TAF: LIRG 121400Z 1215/1224 14012KT 9999 FEW020 SCT040 TEMPO 1215/1217 FEW025CB

Osservazioni e previsioni meteorologiche di più di 4000 aeroporti (messaggi METAR e TAF).

Le stazioni disponibili sono rappresentate dai dischi gialli e rossi sulla carta.

Puntare il mouse per vedere il nome della stazione.

Clicca sopra per visualizzare le osservazioni e previsioni meteorologiche.

Per cambiare la mappa : fare clic sui pulsanti verdi con una croce nera per ingrandire, il pulsante verde con un trattino per diminuire, o sulla freccia verde per le mappe adiacenti.


METAR-TAF: